UKKK/IEV METAR and TAF weather

Enter ICAO airport designator
Station Type Date Time Source
UKKK METAR 2020/07/12 19:30 UTC NOAA

UKKK 121930Z 33006MPS 9999 BKN014 17/13 Q1015 R26/CLRD70 TEMPO VRB12G19MPS 2100 -TSRAGR SQ BKN020CB


Station Type Date Time Source
UKKK Decoded METAR 2020/07/12 19:30 UTC NOAA

Kyiv, Ukraine (UKKK) 50-24N 030-34E 167M
Jul 12, 2020 - 03:30 PM EDT / 2020.07.12 1930 UTC
Wind: from the NNW (330 degrees) at 13 MPH (12 KT):0
Visibility: greater than 7 mile(s):0
Sky conditions: mostly cloudy
Weather: Cumulonimbus clouds observed
Temperature: 62 F (17 C)
Dew Point: 55 F (13 C)
Relative Humidity: 77%
Pressure (altimeter): 29.97 in. Hg (1015 hPa)
ob: UKKK 121930Z 33006MPS 9999 BKN014 17/13 Q1015 R26/CLRD70 TEMPO VRB12G19MPS 2100 -TSRAGR SQ BKN020CB
cycle: 19

Station Type Date Time Source
UKKK TAF 2020/07/12 18:09 UTC NOAA

TAF TAF UKKK 121705Z 1218/1318 34006G11MPS 9999 BKN020
TEMPO 1218/1220 VRB12G19MPS 1000 TSRAGR SQ BKN006 BKN015CB
TEMPO 1220/1310 36008G14MPS 2100 -SHRA BKN005 SCT015CB

Example: see airport list